Time;durP1;ratioP1;P1;durP2;ratioP2;P2;SDS_P1;SDS_P2;PMS_P1;PMS_P2;Temp;Humidity;BMP_temperature;BMP_pressure;BME280_temperature;BME280_humidity;BME280_pressure;Samples;Min_cycle;Max_cycle;Signal;HPM_P1;HPM_P2
2022/01/16 00:00:40;;;;;;;;;;;3.10;1.00;;;;;;5052241;28;19917;-82
2022/01/16 00:05:53;;;;;;;;;;;3.10;1.00;;;;;;5028122;28;20285;-81
2022/01/16 00:08:19;;;;;;;;;;;3.20;1.00;;;;;;5043213;28;19910;-81
2022/01/16 00:10:44;;;;;;;;;;;3.20;1.00;;;;;;5035425;28;19909;-82
2022/01/16 00:13:10;;;;;;;;;;;3.20;1.00;;;;;;5034845;28;20401;-81
2022/01/16 00:15:35;;;;;;;;;;;3.30;1.00;;;;;;5051861;28;19917;-81
2022/01/16 00:20:30;;;;;;;;;;;3.30;1.00;;;;;;5019798;28;19913;-81
2022/01/16 00:22:56;;;;;;;;;;;3.30;1.00;;;;;;5019376;28;20047;-81
2022/01/16 00:25:21;;;;;;;;;;;3.30;1.00;;;;;;5019948;28;20393;-81
2022/01/16 00:27:47;;;;;;;;;;;3.30;1.00;;;;;;5028392;28;19913;-81
2022/01/16 00:30:13;;;;;;;;;;;3.30;1.00;;;;;;5045361;28;19936;-82
2022/01/16 00:32:38;;;;;;;;;;;3.30;1.00;;;;;;5039121;28;19919;-81
2022/01/16 00:35:04;;;;;;;;;;;3.20;1.00;;;;;;5040969;28;19921;-81
2022/01/16 00:37:30;;;;;;;;;;;3.20;1.00;;;;;;5024244;28;19917;-81
2022/01/16 00:39:55;;;;;;;;;;;3.20;1.00;;;;;;5036940;28;19913;-81
2022/01/16 00:42:21;;;;;;;;;;;3.10;1.00;;;;;;5018707;28;19909;-83
2022/01/16 00:44:46;;;;;;;;;;;3.10;1.00;;;;;;5020019;28;19914;-81
2022/01/16 00:47:12;;;;;;;;;;;3.10;1.00;;;;;;5017679;28;20004;-82
2022/01/16 00:49:39;;;;;;;;;;;3.10;1.00;;;;;;5036799;28;19910;-81
2022/01/16 00:52:05;;;;;;;;;;;3.10;1.00;;;;;;5020566;28;19910;-82
2022/01/16 00:54:31;;;;;;;;;;;3.10;1.00;;;;;;5020572;28;19932;-81
2022/01/16 00:56:56;;;;;;;;;;;3.10;1.00;;;;;;5020207;28;19909;-81
2022/01/16 00:59:21;;;;;;;;;;;3.10;1.00;;;;;;5017958;28;19940;-81
2022/01/16 01:01:48;;;;;;;;;;;3.00;1.00;;;;;;5036277;28;19917;-81
2022/01/16 01:04:14;;;;;;;;;;;3.00;1.00;;;;;;5034968;28;19909;-81
2022/01/16 01:06:39;;;;;;;;;;;2.90;1.00;;;;;;5034960;28;19916;-81
2022/01/16 01:09:05;;;;;;;;;;;2.90;1.00;;;;;;5036921;28;19913;-81
2022/01/16 01:11:31;;;;;;;;;;;2.90;1.00;;;;;;5019482;28;19910;-81
2022/01/16 01:14:15;;;;;;;;;;;2.80;1.00;;;;;;5025607;28;20558;-81
2022/01/16 01:19:15;;;;;;;;;;;2.80;1.00;;;;;;5021278;28;20016;-80
2022/01/16 01:21:41;;;;;;;;;;;2.70;1.00;;;;;;5017378;28;19910;-81
2022/01/16 01:24:06;;;;;;;;;;;2.70;1.00;;;;;;5049954;28;19924;-82
2022/01/16 01:26:38;;;;;;;;;;;2.70;1.00;;;;;;5018563;28;19913;-83
2022/01/16 01:29:04;;;;;;;;;;;2.70;1.00;;;;;;5033176;28;19913;-82
2022/01/16 01:31:30;;;;;;;;;;;2.70;1.00;;;;;;5034551;28;19964;-81
2022/01/16 01:33:56;;;;;;;;;;;2.70;1.00;;;;;;5037463;28;19956;-81
2022/01/16 01:36:21;;;;;;;;;;;2.70;1.00;;;;;;5025428;28;19909;-81
2022/01/16 01:38:47;;;;;;;;;;;2.60;1.00;;;;;;5042034;28;19917;-81
2022/01/16 01:41:12;;;;;;;;;;;2.60;1.00;;;;;;5034975;28;19965;-81
2022/01/16 01:51:36;;;;;;;;;;;2.60;1.00;;;;;;5019383;28;19993;-80
2022/01/16 01:54:03;;;;;;;;;;;2.60;1.00;;;;;;5019783;28;19917;-82
2022/01/16 01:56:28;;;;;;;;;;;2.60;1.00;;;;;;5018208;28;20035;-81
2022/01/16 01:58:56;;;;;;;;;;;2.60;1.00;;;;;;5029759;28;19920;-81
2022/01/16 02:01:22;;;;;;;;;;;2.60;1.00;;;;;;5026515;28;19913;-81
2022/01/16 02:03:48;;;;;;;;;;;2.60;1.00;;;;;;5033025;28;20540;-81
2022/01/16 02:06:18;;;;;;;;;;;2.60;1.00;;;;;;5033569;28;19913;-81
2022/01/16 02:08:45;;;;;;;;;;;2.60;1.00;;;;;;5017722;28;19913;-81
2022/01/16 02:11:12;;;;;;;;;;;2.60;1.00;;;;;;5019281;28;19920;-81
2022/01/16 02:13:48;;;;;;;;;;;2.60;1.00;;;;;;5033453;28;19948;-80
2022/01/16 02:33:04;;;;;;;;;;;2.60;1.00;;;;;;5005941;28;19932;-81
2022/01/16 02:35:13;;;;;;;;;;;2.70;1.00;;;;;;5021884;28;19936;-81
2022/01/16 02:37:38;;;;;;;;;;;2.70;1.00;;;;;;5025649;28;19909;-81
2022/01/16 02:40:13;;;;;;;;;;;2.70;1.00;;;;;;5029977;28;19909;-82
2022/01/16 02:42:42;;;;;;;;;;;2.70;1.00;;;;;;5049159;28;19949;-81
2022/01/16 02:45:15;;;;;;;;;;;2.70;1.00;;;;;;5038408;28;19913;-82
2022/01/16 02:47:41;;;;;;;;;;;2.80;1.00;;;;;;5035503;28;19917;-82
2022/01/16 02:50:07;;;;;;;;;;;2.80;1.00;;;;;;5021376;28;19913;-82
2022/01/16 02:52:32;;;;;;;;;;;2.80;1.00;;;;;;5052883;28;19925;-81
2022/01/16 02:55:00;;;;;;;;;;;2.80;1.00;;;;;;5045448;28;19963;-82
2022/01/16 02:57:25;;;;;;;;;;;2.90;1.00;;;;;;5023422;28;20389;-82
2022/01/16 02:59:52;;;;;;;;;;;2.90;1.00;;;;;;5033922;28;19920;-81
2022/01/16 03:02:18;;;;;;;;;;;2.90;1.00;;;;;;5038341;28;19909;-82
2022/01/16 03:04:44;;;;;;;;;;;3.00;1.00;;;;;;5024695;28;19964;-82
2022/01/16 03:07:09;;;;;;;;;;;3.00;1.00;;;;;;5037847;28;19917;-81
2022/01/16 03:10:08;;;;;;;;;;;3.10;1.00;;;;;;5035271;28;19995;-83
2022/01/16 03:12:22;;;;;;;;;;;3.10;1.00;;;;;;5022712;28;19951;-81
2022/01/16 03:14:47;;;;;;;;;;;3.10;1.00;;;;;;5022882;28;19925;-81
2022/01/16 03:17:21;;;;;;;;;;;3.20;1.00;;;;;;5023265;28;19914;-81
2022/01/16 03:22:31;;;;;;;;;;;3.20;1.00;;;;;;5018096;28;19932;-81
2022/01/16 03:24:56;;;;;;;;;;;3.20;1.00;;;;;;5049501;28;19918;-81
2022/01/16 03:27:22;;;;;;;;;;;3.30;1.00;;;;;;5021373;28;20436;-82
2022/01/16 03:29:57;;;;;;;;;;;3.30;1.00;;;;;;5023215;28;19921;-81
2022/01/16 03:32:23;;;;;;;;;;;3.30;1.00;;;;;;5036190;28;19913;-81
2022/01/16 03:34:49;;;;;;;;;;;3.40;1.00;;;;;;5021123;28;19932;-81
2022/01/16 03:37:14;;;;;;;;;;;3.40;1.00;;;;;;5036804;28;20321;-82
2022/01/16 03:39:40;;;;;;;;;;;3.40;1.00;;;;;;5037195;28;19914;-81
2022/01/16 03:42:06;;;;;;;;;;;3.40;1.00;;;;;;5021147;28;19909;-81
2022/01/16 03:44:31;;;;;;;;;;;3.40;1.00;;;;;;5019430;28;19921;-81
2022/01/16 03:46:56;;;;;;;;;;;3.40;1.00;;;;;;5020905;28;20004;-82
2022/01/16 03:49:24;;;;;;;;;;;3.50;1.00;;;;;;5037841;28;19917;-81
2022/01/16 03:51:51;;;;;;;;;;;3.50;1.00;;;;;;5049072;28;20069;-81
2022/01/16 03:54:17;;;;;;;;;;;3.50;1.00;;;;;;5020882;28;19921;-82
2022/01/16 03:56:43;;;;;;;;;;;3.50;1.00;;;;;;5025333;28;19945;-82
2022/01/16 03:59:08;;;;;;;;;;;3.50;1.00;;;;;;5021643;28;19910;-81
2022/01/16 04:01:34;;;;;;;;;;;3.50;1.00;;;;;;5042200;28;20277;-82
2022/01/16 04:04:00;;;;;;;;;;;3.60;1.00;;;;;;5052796;28;19910;-81
2022/01/16 04:06:25;;;;;;;;;;;3.60;1.00;;;;;;5025272;28;19918;-81
2022/01/16 04:08:53;;;;;;;;;;;3.60;1.00;;;;;;5020698;28;20332;-82
2022/01/16 04:11:18;;;;;;;;;;;3.60;1.00;;;;;;5035959;28;19914;-82
2022/01/16 04:13:51;;;;;;;;;;;3.60;1.00;;;;;;5039209;28;20366;-81
2022/01/16 04:16:17;;;;;;;;;;;3.60;1.00;;;;;;5026077;28;19913;-81
2022/01/16 04:18:42;;;;;;;;;;;3.60;1.00;;;;;;5029248;28;19917;-81
2022/01/16 04:21:08;;;;;;;;;;;3.60;1.00;;;;;;5025879;28;19967;-81
2022/01/16 04:23:33;;;;;;;;;;;3.60;1.00;;;;;;5031866;28;19913;-81
2022/01/16 04:25:59;;;;;;;;;;;3.60;1.00;;;;;;5026747;28;19918;-82
2022/01/16 04:28:25;;;;;;;;;;;3.60;1.00;;;;;;5053307;28;19996;-82
2022/01/16 04:30:51;;;;;;;;;;;3.60;1.00;;;;;;5042240;28;19953;-82
2022/01/16 04:33:17;;;;;;;;;;;3.70;1.00;;;;;;5028660;28;19967;-81
2022/01/16 04:35:42;;;;;;;;;;;3.60;1.00;;;;;;5036388;28;19921;-81
2022/01/16 04:38:08;;;;;;;;;;;3.60;1.00;;;;;;5025315;28;19933;-82
2022/01/16 04:40:42;;;;;;;;;;;3.70;1.00;;;;;;5021434;28;19920;-82
2022/01/16 04:45:54;;;;;;;;;;;3.70;1.00;;;;;;5021791;28;19933;-81
2022/01/16 04:48:20;;;;;;;;;;;3.70;1.00;;;;;;5021018;28;20117;-83
2022/01/16 04:50:45;;;;;;;;;;;3.70;1.00;;;;;;5022140;28;19956;-82
2022/01/16 04:53:10;;;;;;;;;;;3.70;1.00;;;;;;5022202;28;19913;-81
2022/01/16 04:55:36;;;;;;;;;;;3.70;1.00;;;;;;5019222;28;19937;-82
2022/01/16 04:58:01;;;;;;;;;;;3.70;1.00;;;;;;5036568;28;19913;-82
2022/01/16 05:00:27;;;;;;;;;;;3.80;1.00;;;;;;5054286;28;19919;-81
2022/01/16 05:02:52;;;;;;;;;;;3.80;1.00;;;;;;5024576;28;19921;-81
2022/01/16 05:05:18;;;;;;;;;;;3.80;1.00;;;;;;5019567;28;19914;-82
2022/01/16 05:07:43;;;;;;;;;;;3.80;1.00;;;;;;5021566;28;20004;-82
2022/01/16 05:10:09;;;;;;;;;;;3.80;1.00;;;;;;5031588;28;19916;-82
2022/01/16 05:12:37;;;;;;;;;;;3.80;1.00;;;;;;5049398;28;19925;-81
2022/01/16 05:17:47;;;;;;;;;;;3.80;1.00;;;;;;5017486;28;19920;-81
2022/01/16 05:20:13;;;;;;;;;;;3.80;1.00;;;;;;5042769;28;19945;-81
2022/01/16 05:22:39;;;;;;;;;;;3.80;1.00;;;;;;5046596;28;20277;-82
2022/01/16 05:25:07;;;;;;;;;;;3.80;1.00;;;;;;5019663;28;19940;-81
2022/01/16 05:27:32;;;;;;;;;;;3.80;1.00;;;;;;5034714;28;19924;-81
2022/01/16 05:29:58;;;;;;;;;;;3.80;1.00;;;;;;5019197;28;20000;-81
2022/01/16 05:32:23;;;;;;;;;;;3.80;1.00;;;;;;5019585;28;20358;-81
2022/01/16 05:34:48;;;;;;;;;;;3.80;1.00;;;;;;5018042;28;19917;-81
2022/01/16 05:37:14;;;;;;;;;;;3.80;1.00;;;;;;5019839;28;20332;-82
2022/01/16 05:39:40;;;;;;;;;;;3.80;1.00;;;;;;5019892;28;19963;-81
2022/01/16 05:42:07;;;;;;;;;;;3.80;1.00;;;;;;5031868;28;19941;-81
2022/01/16 05:44:32;;;;;;;;;;;3.80;1.00;;;;;;5017669;28;19921;-81
2022/01/16 05:47:02;;;;;;;;;;;3.80;1.00;;;;;;5036468;28;19914;-81
2022/01/16 05:49:27;;;;;;;;;;;3.80;1.00;;;;;;5051875;28;19910;-81
2022/01/16 05:51:53;;;;;;;;;;;3.80;1.00;;;;;;5037552;28;19973;-81
2022/01/16 05:54:18;;;;;;;;;;;3.80;1.00;;;;;;5027986;28;20338;-81
2022/01/16 05:56:44;;;;;;;;;;;3.90;1.00;;;;;;5034170;28;19914;-81
2022/01/16 05:59:09;;;;;;;;;;;3.90;1.00;;;;;;5031902;28;19995;-82
2022/01/16 06:01:36;;;;;;;;;;;3.90;1.00;;;;;;5017658;28;19913;-81
2022/01/16 06:04:02;;;;;;;;;;;3.90;1.00;;;;;;5023425;28;19967;-81
2022/01/16 06:06:27;;;;;;;;;;;3.90;1.00;;;;;;5022465;28;19913;-82
2022/01/16 06:08:53;;;;;;;;;;;3.90;1.00;;;;;;5022330;28;19940;-82
2022/01/16 06:11:18;;;;;;;;;;;3.90;1.00;;;;;;5031616;28;19921;-82
2022/01/16 06:13:44;;;;;;;;;;;3.90;1.00;;;;;;5031143;28;19913;-81
2022/01/16 06:16:09;;;;;;;;;;;3.90;1.00;;;;;;5032535;28;19917;-82
2022/01/16 06:18:35;;;;;;;;;;;4.00;1.00;;;;;;5028344;28;19991;-81
2022/01/16 06:21:00;;;;;;;;;;;4.00;1.00;;;;;;5021371;28;19913;-83
2022/01/16 06:23:26;;;;;;;;;;;4.00;1.00;;;;;;5037702;28;20312;-82
2022/01/16 06:25:54;;;;;;;;;;;4.00;1.00;;;;;;5021692;28;19929;-81
2022/01/16 06:28:30;;;;;;;;;;;4.00;1.00;;;;;;5024990;28;19920;-82
2022/01/16 06:30:57;;;;;;;;;;;4.00;1.00;;;;;;5037338;28;19910;-83
2022/01/16 06:33:24;;;;;;;;;;;4.00;1.00;;;;;;5052186;28;20000;-82
2022/01/16 06:35:49;;;;;;;;;;;4.00;1.00;;;;;;5025508;28;19929;-82
2022/01/16 06:38:15;;;;;;;;;;;4.10;1.00;;;;;;5019813;28;19914;-82
2022/01/16 06:40:40;;;;;;;;;;;4.10;1.00;;;;;;5020447;28;19909;-82
2022/01/16 06:43:06;;;;;;;;;;;4.10;1.00;;;;;;5023385;28;19914;-81
2022/01/16 06:45:31;;;;;;;;;;;4.10;1.00;;;;;;5021615;28;19944;-82
2022/01/16 06:47:57;;;;;;;;;;;4.10;1.00;;;;;;5033187;28;19920;-82
2022/01/16 06:50:22;;;;;;;;;;;4.10;1.00;;;;;;5015555;28;19925;-81
2022/01/16 06:52:48;;;;;;;;;;;4.10;1.00;;;;;;5026264;28;19920;-82
2022/01/16 06:55:13;;;;;;;;;;;4.10;1.00;;;;;;5038318;28;19925;-82
2022/01/16 06:57:38;;;;;;;;;;;4.10;1.00;;;;;;5035886;28;19913;-82
2022/01/16 07:00:05;;;;;;;;;;;4.20;1.00;;;;;;5035719;28;20003;-82
2022/01/16 07:02:30;;;;;;;;;;;4.20;1.00;;;;;;5021513;28;19917;-82
2022/01/16 07:04:56;;;;;;;;;;;4.10;1.00;;;;;;5019591;28;19914;-82
2022/01/16 07:07:21;;;;;;;;;;;4.20;1.00;;;;;;5034310;28;19957;-82
2022/01/16 07:09:47;;;;;;;;;;;4.30;1.00;;;;;;5018779;28;19917;-81
2022/01/16 07:12:12;;;;;;;;;;;4.40;1.00;;;;;;5027957;28;19944;-82
2022/01/16 07:14:38;;;;;;;;;;;4.50;1.00;;;;;;5035169;28;19914;-83
2022/01/16 07:17:03;;;;;;;;;;;4.50;1.00;;;;;;5027662;28;19924;-82
2022/01/16 07:19:29;;;;;;;;;;;4.50;1.00;;;;;;5038932;28;19916;-82
2022/01/16 07:21:54;;;;;;;;;;;4.50;1.00;;;;;;5046416;28;19921;-82
2022/01/16 07:24:20;;;;;;;;;;;4.50;1.00;;;;;;5040195;28;20377;-81
2022/01/16 07:26:45;;;;;;;;;;;4.50;1.00;;;;;;5044245;28;19918;-82
2022/01/16 07:29:11;;;;;;;;;;;4.50;1.00;;;;;;5024237;28;19959;-83
2022/01/16 07:31:38;;;;;;;;;;;4.50;1.00;;;;;;5044949;28;20463;-82
2022/01/16 07:34:07;;;;;;;;;;;4.50;1.00;;;;;;5024386;28;19909;-82
2022/01/16 07:36:33;;;;;;;;;;;4.50;1.00;;;;;;5028279;28;19984;-83
2022/01/16 07:38:59;;;;;;;;;;;4.50;1.00;;;;;;5022773;28;19910;-83
2022/01/16 07:41:24;;;;;;;;;;;4.50;1.00;;;;;;5028030;28;19956;-83
2022/01/16 07:43:50;;;;;;;;;;;4.50;1.00;;;;;;5024143;28;19909;-82
2022/01/16 07:46:18;;;;;;;;;;;4.50;1.00;;;;;;5039096;28;19917;-82
2022/01/16 07:48:44;;;;;;;;;;;4.40;1.00;;;;;;5023180;28;19909;-81
2022/01/16 07:51:09;;;;;;;;;;;4.40;1.00;;;;;;5038874;28;19913;-82
2022/01/16 07:53:36;;;;;;;;;;;4.50;1.00;;;;;;5022186;28;19931;-82
2022/01/16 07:56:02;;;;;;;;;;;4.50;1.00;;;;;;5023333;28;19921;-82
2022/01/16 07:58:28;;;;;;;;;;;4.50;1.00;;;;;;5022689;28;19913;-82
2022/01/16 08:00:53;;;;;;;;;;;4.50;1.00;;;;;;5040468;28;19952;-82
2022/01/16 08:03:19;;;;;;;;;;;4.50;1.00;;;;;;5039003;28;19913;-82
2022/01/16 08:05:44;;;;;;;;;;;4.50;1.00;;;;;;5023001;28;19914;-81
2022/01/16 08:08:10;;;;;;;;;;;4.50;1.00;;;;;;5024295;28;19932;-81
2022/01/16 08:10:35;;;;;;;;;;;4.50;1.00;;;;;;5032224;28;19916;-82
2022/01/16 08:13:01;;;;;;;;;;;4.40;1.00;;;;;;5041089;28;19977;-82
2022/01/16 08:15:26;;;;;;;;;;;4.50;1.00;;;;;;5047761;28;19924;-82
2022/01/16 08:17:52;;;;;;;;;;;4.50;1.00;;;;;;5042897;28;19917;-82
2022/01/16 08:20:18;;;;;;;;;;;4.50;1.00;;;;;;5027375;28;19913;-81
2022/01/16 08:22:45;;;;;;;;;;;4.50;1.00;;;;;;5026535;28;19932;-82
2022/01/16 08:25:10;;;;;;;;;;;4.50;1.00;;;;;;5022192;28;19972;-83
2022/01/16 08:27:36;;;;;;;;;;;4.50;1.00;;;;;;5054648;28;19909;-81
2022/01/16 08:30:02;;;;;;;;;;;4.50;1.00;;;;;;5042683;28;19913;-82
2022/01/16 08:32:28;;;;;;;;;;;4.50;1.00;;;;;;5041054;28;19948;-80
2022/01/16 08:34:53;;;;;;;;;;;4.50;1.00;;;;;;5046690;28;19940;-82
2022/01/16 08:37:19;;;;;;;;;;;4.50;1.00;;;;;;5049665;28;19932;-81
2022/01/16 08:39:44;;;;;;;;;;;4.50;99.90;;;;;;5038903;28;19913;-82
2022/01/16 08:42:10;;;;;;;;;;;4.50;99.90;;;;;;5050175;28;19920;-83
2022/01/16 08:44:38;;;;;;;;;;;4.60;99.90;;;;;;5040265;28;20309;-82
2022/01/16 08:47:04;;;;;;;;;;;4.60;99.90;;;;;;5038894;28;20229;-82
2022/01/16 08:49:30;;;;;;;;;;;4.60;99.90;;;;;;5022508;28;19913;-81
2022/01/16 08:51:55;;;;;;;;;;;4.60;99.90;;;;;;5040288;28;19963;-81
2022/01/16 08:54:21;;;;;;;;;;;4.70;99.90;;;;;;5021309;28;20577;-82
2022/01/16 08:56:46;;;;;;;;;;;4.70;99.90;;;;;;5039444;28;19913;-83
2022/01/16 08:59:11;;;;;;;;;;;4.80;99.90;;;;;;5037970;28;19925;-82
2022/01/16 09:01:37;;;;;;;;;;;4.80;99.90;;;;;;5036500;28;19913;-82
2022/01/16 09:04:02;;;;;;;;;;;4.90;99.90;;;;;;5020545;28;19917;-82
2022/01/16 09:06:28;;;;;;;;;;;4.90;99.90;;;;;;5020121;28;20441;-80
2022/01/16 09:08:54;;;;;;;;;;;5.00;99.90;;;;;;5044813;28;19959;-82
2022/01/16 09:11:23;;;;;;;;;;;5.00;99.90;;;;;;5053915;28;19909;-82
2022/01/16 09:13:49;;;;;;;;;;;5.10;99.90;;;;;;5028844;28;20356;-82
2022/01/16 09:16:14;;;;;;;;;;;5.10;99.90;;;;;;5020843;28;19961;-83
2022/01/16 09:18:40;;;;;;;;;;;5.10;99.90;;;;;;5026142;28;20001;-82
2022/01/16 09:21:05;;;;;;;;;;;5.10;99.90;;;;;;5029988;28;19913;-82
2022/01/16 09:23:31;;;;;;;;;;;5.10;99.90;;;;;;5037597;28;19917;-82
2022/01/16 09:25:56;;;;;;;;;;;5.20;99.90;;;;;;5025168;28;19923;-82
2022/01/16 09:28:22;;;;;;;;;;;5.20;99.90;;;;;;5024370;28;20392;-81
2022/01/16 09:30:47;;;;;;;;;;;5.20;99.90;;;;;;5052999;28;19920;-81
2022/01/16 09:33:13;;;;;;;;;;;5.20;99.90;;;;;;5054013;28;20389;-81
2022/01/16 09:35:38;;;;;;;;;;;5.30;99.90;;;;;;5044873;28;20016;-81
2022/01/16 09:38:04;;;;;;;;;;;5.30;99.90;;;;;;5024275;28;19914;-80
2022/01/16 09:40:30;;;;;;;;;;;5.40;99.90;;;;;;5042857;28;19917;-80
2022/01/16 09:42:56;;;;;;;;;;;5.40;99.90;;;;;;5035582;28;19918;-80
2022/01/16 09:45:21;;;;;;;;;;;5.50;99.90;;;;;;5007446;28;19922;-81
2022/01/16 09:47:47;;;;;;;;;;;5.50;99.90;;;;;;5023297;28;19949;-82
2022/01/16 09:50:17;;;;;;;;;;;5.50;99.90;;;;;;5027049;28;19921;-81
2022/01/16 09:52:44;;;;;;;;;;;5.50;99.90;;;;;;5039988;28;19913;-83
2022/01/16 09:55:09;;;;;;;;;;;5.50;99.90;;;;;;5029052;28;19925;-82
2022/01/16 09:57:35;;;;;;;;;;;5.50;99.90;;;;;;5034959;28;19913;-82
2022/01/16 10:00:02;;;;;;;;;;;5.50;99.90;;;;;;5014418;28;19960;-82
2022/01/16 10:02:28;;;;;;;;;;;5.50;99.90;;;;;;5012279;28;19997;-82
2022/01/16 10:04:53;;;;;;;;;;;5.50;99.90;;;;;;5013478;28;19949;-82
2022/01/16 10:07:19;;;;;;;;;;;5.50;99.90;;;;;;5022529;28;19937;-82
2022/01/16 10:09:46;;;;;;;;;;;5.50;99.90;;;;;;5020071;28;19952;-81
2022/01/16 10:12:19;;;;;;;;;;;5.60;99.90;;;;;;5020956;28;19913;-82
2022/01/16 10:14:49;;;;;;;;;;;5.60;99.90;;;;;;5031645;28;19921;-81
2022/01/16 10:17:18;;;;;;;;;;;5.60;99.90;;;;;;5015319;28;19980;-82
2022/01/16 10:19:44;;;;;;;;;;;5.60;99.90;;;;;;5030324;28;20008;-81
2022/01/16 10:22:11;;;;;;;;;;;5.70;99.90;;;;;;5023870;28;19910;-81
2022/01/16 10:24:39;;;;;;;;;;;5.70;97.50;;;;;;5023319;28;19916;-81
2022/01/16 10:27:04;;;;;;;;;;;5.80;58.20;;;;;;5017830;28;19910;-81
2022/01/16 10:29:31;;;;;;;;;;;5.80;44.00;;;;;;5023221;28;19912;-82
2022/01/16 10:32:09;;;;;;;;;;;5.80;19.30;;;;;;5042794;28;19989;-82
2022/01/16 10:34:34;;;;;;;;;;;5.90;1.00;;;;;;5053929;28;19956;-81
2022/01/16 10:37:00;;;;;;;;;;;5.90;1.00;;;;;;5023375;28;19909;-82
2022/01/16 10:39:25;;;;;;;;;;;6.00;1.00;;;;;;5038346;28;19948;-81
2022/01/16 10:42:09;;;;;;;;;;;6.00;1.00;;;;;;5027205;28;19936;-81
2022/01/16 10:44:35;;;;;;;;;;;6.00;1.00;;;;;;5040913;28;19910;-82
2022/01/16 10:47:21;;;;;;;;;;;6.00;1.00;;;;;;5027540;28;19909;-82
2022/01/16 10:50:05;;;;;;;;;;;6.10;1.00;;;;;;5028182;28;19910;-82
2022/01/16 10:52:31;;;;;;;;;;;6.10;1.00;;;;;;5036052;28;19909;-82
2022/01/16 10:55:07;;;;;;;;;;;6.30;1.00;;;;;;5025542;28;19967;-82
2022/01/16 10:57:32;;;;;;;;;;;6.30;99.90;;;;;;5027246;28;19916;-82
2022/01/16 11:00:24;;;;;;;;;;;6.30;63.20;;;;;;5026949;28;19910;-82
2022/01/16 11:02:50;;;;;;;;;;;6.30;1.00;;;;;;5026286;28;19909;-82
2022/01/16 11:05:17;;;;;;;;;;;6.20;1.00;;;;;;5046416;28;19910;-82
2022/01/16 11:07:43;;;;;;;;;;;6.20;1.00;;;;;;5060861;28;19909;-81
2022/01/16 11:10:28;;;;;;;;;;;6.10;1.00;;;;;;5026757;28;20000;-81
2022/01/16 11:12:54;;;;;;;;;;;6.10;1.00;;;;;;5024979;28;19916;-81
2022/01/16 11:15:20;;;;;;;;;;;6.10;1.00;;;;;;5050743;28;19960;-81
2022/01/16 11:17:46;;;;;;;;;;;6.10;1.00;;;;;;5023378;28;19917;-81
2022/01/16 11:20:12;;;;;;;;;;;6.20;1.00;;;;;;5026156;28;19914;-81
2022/01/16 11:22:57;;;;;;;;;;;6.20;1.00;;;;;;5027065;28;19905;-81
2022/01/16 11:25:31;;;;;;;;;;;6.30;1.00;;;;;;5027473;28;19918;-81
2022/01/16 11:28:26;;;;;;;;;;;6.30;99.90;;;;;;5052825;28;19909;-81
2022/01/16 11:30:55;;;;;;;;;;;6.30;99.90;;;;;;5041536;28;19928;-81
2022/01/16 11:33:22;;;;;;;;;;;6.30;99.90;;;;;;5041499;28;19999;-81
2022/01/16 11:35:59;;;;;;;;;;;6.30;63.60;;;;;;5035426;28;19913;-81
2022/01/16 11:38:28;;;;;;;;;;;6.40;1.00;;;;;;5055324;28;19921;-81
2022/01/16 11:40:54;;;;;;;;;;;6.40;44.30;;;;;;5040698;28;19944;-81
2022/01/16 11:43:22;;;;;;;;;;;6.50;5.90;;;;;;5042250;28;19932;-82
2022/01/16 11:45:51;;;;;;;;;;;6.40;1.00;;;;;;5025832;28;20027;-81
2022/01/16 11:48:17;;;;;;;;;;;6.50;1.00;;;;;;5026537;28;19968;-81
2022/01/16 11:50:43;;;;;;;;;;;6.40;1.00;;;;;;5041040;28;19914;-81
2022/01/16 11:53:08;;;;;;;;;;;6.50;99.90;;;;;;5042354;28;19909;-82
2022/01/16 11:55:34;;;;;;;;;;;6.50;99.90;;;;;;5043467;28;19922;-81
2022/01/16 11:58:01;;;;;;;;;;;6.60;99.90;;;;;;5025843;28;19914;-81
2022/01/16 12:00:41;;;;;;;;;;;6.50;34.40;;;;;;5022775;28;19932;-80
2022/01/16 12:03:26;;;;;;;;;;;6.60;30.70;;;;;;5038791;28;19913;-81
2022/01/16 12:05:56;;;;;;;;;;;6.60;1.00;;;;;;5039190;28;19921;-81
2022/01/16 12:08:33;;;;;;;;;;;6.40;1.00;;;;;;5040726;28;19968;-81
2022/01/16 12:10:59;;;;;;;;;;;6.50;44.90;;;;;;5045429;28;20000;-81
2022/01/16 12:13:44;;;;;;;;;;;6.60;1.00;;;;;;5022301;28;19948;-81
2022/01/16 12:16:45;;;;;;;;;;;6.80;1.00;;;;;;5036641;28;19917;-81
2022/01/16 12:19:29;;;;;;;;;;;6.80;99.90;;;;;;5024347;28;19923;-81
2022/01/16 12:21:55;;;;;;;;;;;6.80;99.90;;;;;;5047799;28;19925;-81
2022/01/16 12:24:37;;;;;;;;;;;6.60;99.90;;;;;;5022390;28;20588;-79
2022/01/16 12:27:21;;;;;;;;;;;6.50;99.90;;;;;;5038705;28;19917;-81
2022/01/16 12:30:05;;;;;;;;;;;6.50;1.00;;;;;;5052332;28;19914;-80
2022/01/16 12:32:49;;;;;;;;;;;6.40;1.00;;;;;;5050386;28;19926;-81
2022/01/16 12:35:15;;;;;;;;;;;6.30;1.00;;;;;;5019951;28;20021;-81
2022/01/16 12:37:42;;;;;;;;;;;6.40;3.60;;;;;;5004200;28;19914;-81
2022/01/16 12:40:08;;;;;;;;;;;6.40;89.50;;;;;;5020283;28;19906;-80
2022/01/16 12:42:33;;;;;;;;;;;6.50;30.10;;;;;;5022708;28;20322;-80
2022/01/16 12:44:59;;;;;;;;;;;6.50;1.00;;;;;;5030602;28;19920;-81
2022/01/16 12:47:25;;;;;;;;;;;6.50;15.10;;;;;;5037087;28;20000;-80
2022/01/16 12:49:52;;;;;;;;;;;6.60;1.00;;;;;;5021496;28;19909;-80
2022/01/16 12:52:18;;;;;;;;;;;6.60;1.00;;;;;;5036773;28;19956;-82
2022/01/16 12:54:48;;;;;;;;;;;6.60;1.00;;;;;;5036823;28;19917;-80
2022/01/16 12:57:24;;;;;;;;;;;6.60;1.00;;;;;;5018471;28;19921;-80
2022/01/16 12:59:50;;;;;;;;;;;6.60;1.00;;;;;;5032013;28;19914;-80
2022/01/16 13:02:15;;;;;;;;;;;6.60;1.00;;;;;;5038962;28;19921;-80
2022/01/16 13:04:42;;;;;;;;;;;6.60;1.00;;;;;;5003605;28;19918;-80
2022/01/16 13:07:15;;;;;;;;;;;6.50;1.00;;;;;;5017605;28;19953;-80
2022/01/16 13:09:41;;;;;;;;;;;6.50;1.00;;;;;;5017217;28;19975;-81
2022/01/16 13:12:12;;;;;;;;;;;6.60;1.00;;;;;;5035339;28;20008;-80
2022/01/16 13:14:38;;;;;;;;;;;6.60;1.00;;;;;;5036774;28;19914;-80
2022/01/16 13:17:06;;;;;;;;;;;6.50;1.00;;;;;;5018061;28;20271;-80
2022/01/16 13:22:19;;;;;;;;;;;6.40;99.90;;;;;;5033208;28;20017;-80
2022/01/16 13:24:46;;;;;;;;;;;6.40;99.90;;;;;;5031881;28;19936;-79
2022/01/16 13:27:51;;;;;;;;;;;6.40;99.90;;;;;;5050102;28;19921;-80
2022/01/16 13:30:23;;;;;;;;;;;6.40;1.00;;;;;;5043260;28;20039;-80
2022/01/16 13:32:49;;;;;;;;;;;6.20;1.00;;;;;;5041571;28;19913;-80
2022/01/16 13:35:25;;;;;;;;;;;6.20;31.70;;;;;;5033410;28;19917;-80
2022/01/16 13:37:53;;;;;;;;;;;6.10;99.90;;;;;;5044747;28;20429;-80
2022/01/16 13:40:23;;;;;;;;;;;6.10;1.00;;;;;;5022429;28;19913;-80
2022/01/16 13:43:02;;;;;;;;;;;6.10;1.00;;;;;;5034489;28;19968;-80
2022/01/16 13:45:35;;;;;;;;;;;6.10;1.00;;;;;;5017680;28;19909;-79
2022/01/16 13:48:01;;;;;;;;;;;6.10;15.10;;;;;;5018494;28;19924;-81
2022/01/16 13:50:28;;;;;;;;;;;6.00;99.90;;;;;;5034683;28;19914;-81
2022/01/16 13:52:55;;;;;;;;;;;6.00;99.90;;;;;;5019879;28;19952;-80
2022/01/16 13:55:21;;;;;;;;;;;6.00;1.00;;;;;;5023106;28;19921;-79
2022/01/16 13:57:47;;;;;;;;;;;5.90;1.00;;;;;;5019480;28;19916;-79
2022/01/16 14:00:13;;;;;;;;;;;5.90;1.00;;;;;;5019522;28;19957;-80
2022/01/16 14:02:38;;;;;;;;;;;5.90;1.00;;;;;;5044587;28;19914;-80
2022/01/16 14:05:04;;;;;;;;;;;5.90;1.00;;;;;;5019704;28;19936;-79
2022/01/16 14:07:30;;;;;;;;;;;5.90;1.00;;;;;;5020751;28;20390;-79
2022/01/16 14:09:56;;;;;;;;;;;5.90;4.20;;;;;;5054600;28;19909;-79
2022/01/16 14:12:22;;;;;;;;;;;5.80;96.10;;;;;;5037696;28;19924;-79
2022/01/16 14:14:49;;;;;;;;;;;5.80;99.90;;;;;;5019073;28;20250;-79
2022/01/16 14:22:13;;;;;;;;;;;5.70;99.90;;;;;;5009951;28;19917;-81
2022/01/16 14:24:47;;;;;;;;;;;5.70;99.90;;;;;;5032742;28;20362;-81
2022/01/16 14:27:14;;;;;;;;;;;5.70;99.90;;;;;;5025526;28;20032;-81
2022/01/16 14:29:44;;;;;;;;;;;5.70;99.90;;;;;;5015670;28;19925;-81
2022/01/16 14:32:10;;;;;;;;;;;5.70;99.90;;;;;;5017754;28;19920;-81
2022/01/16 14:34:36;;;;;;;;;;;5.80;99.90;;;;;;5017348;28;19929;-80
2022/01/16 14:37:03;;;;;;;;;;;5.80;99.90;;;;;;5018209;28;19960;-81
2022/01/16 14:39:29;;;;;;;;;;;5.80;99.90;;;;;;5037253;28;20398;-81
2022/01/16 14:41:54;;;;;;;;;;;5.70;99.90;;;;;;5021301;28;19917;-82
2022/01/16 14:44:21;;;;;;;;;;;5.70;99.90;;;;;;5010897;28;19932;-81
2022/01/16 14:46:47;;;;;;;;;;;5.70;99.90;;;;;;5020533;28;19920;-82
2022/01/16 14:49:13;;;;;;;;;;;5.70;99.90;;;;;;5037351;28;19921;-82
2022/01/16 14:51:38;;;;;;;;;;;5.70;99.90;;;;;;5033092;28;19920;-81
2022/01/16 14:54:04;;;;;;;;;;;5.70;99.90;;;;;;5019089;28;19980;-81
2022/01/16 14:56:30;;;;;;;;;;;5.70;1.00;;;;;;5014374;28;19913;-82
2022/01/16 14:58:55;;;;;;;;;;;5.70;1.00;;;;;;5025406;28;19959;-82
2022/01/16 15:01:21;;;;;;;;;;;5.70;1.00;;;;;;5019159;28;19917;-81
2022/01/16 15:03:46;;;;;;;;;;;5.70;1.00;;;;;;5021270;28;19913;-81
2022/01/16 15:06:12;;;;;;;;;;;5.70;99.90;;;;;;5033429;28;19921;-81
2022/01/16 15:08:39;;;;;;;;;;;5.70;99.90;;;;;;5018510;28;19913;-81
2022/01/16 15:11:05;;;;;;;;;;;5.70;99.90;;;;;;5023212;28;19956;-82
2022/01/16 15:13:31;;;;;;;;;;;5.70;1.00;;;;;;5016728;28;19918;-79
2022/01/16 15:15:56;;;;;;;;;;;5.70;1.00;;;;;;5020667;28;19918;-80
2022/01/16 15:18:22;;;;;;;;;;;5.70;1.00;;;;;;5014292;28;19953;-81
2022/01/16 15:20:48;;;;;;;;;;;5.70;1.00;;;;;;5020905;28;19913;-81
2022/01/16 15:23:14;;;;;;;;;;;5.70;1.00;;;;;;5022401;28;19924;-81
2022/01/16 15:25:39;;;;;;;;;;;5.60;1.00;;;;;;5023764;28;19917;-81
2022/01/16 15:28:05;;;;;;;;;;;5.60;1.00;;;;;;5017732;28;19918;-78
2022/01/16 15:30:30;;;;;;;;;;;5.60;1.00;;;;;;5019544;28;19918;-81